sensor_id;sensor_type;location;lat;lon;timestamp;P1;durP1;ratioP1;P2;durP2;ratioP2
79054;SDS011;68452;47.186;-1.528;2023-03-31T00:01:29;47.13;;;5.82;;
79054;SDS011;68452;47.186;-1.528;2023-03-31T00:04:01;36.22;;;5.35;;
79054;SDS011;68452;47.186;-1.528;2023-03-31T00:06:30;42.95;;;4.90;;
79054;SDS011;68452;47.186;-1.528;2023-03-31T00:09:05;36.45;;;5.43;;
79054;SDS011;68452;47.186;-1.528;2023-03-31T00:11:33;41.90;;;6.10;;
79054;SDS011;68452;47.186;-1.528;2023-03-31T00:13:58;58.78;;;7.47;;
79054;SDS011;68452;47.186;-1.528;2023-03-31T00:16:25;51.95;;;6.20;;
79054;SDS011;68452;47.186;-1.528;2023-03-31T00:18:51;54.20;;;7.85;;
79054;SDS011;68452;47.186;-1.528;2023-03-31T00:21:21;43.10;;;6.47;;
79054;SDS011;68452;47.186;-1.528;2023-03-31T00:23:55;56.00;;;6.57;;
79054;SDS011;68452;47.186;-1.528;2023-03-31T00:26:24;55.58;;;6.50;;
79054;SDS011;68452;47.186;-1.528;2023-03-31T00:28:52;45.25;;;6.60;;
79054;SDS011;68452;47.186;-1.528;2023-03-31T00:31:18;49.65;;;6.93;;
79054;SDS011;68452;47.186;-1.528;2023-03-31T00:33:45;51.27;;;6.50;;
79054;SDS011;68452;47.186;-1.528;2023-03-31T00:36:11;57.88;;;7.05;;
79054;SDS011;68452;47.186;-1.528;2023-03-31T00:38:37;53.03;;;6.43;;
79054;SDS011;68452;47.186;-1.528;2023-03-31T00:41:03;58.23;;;7.83;;
79054;SDS011;68452;47.186;-1.528;2023-03-31T00:43:36;47.22;;;6.63;;
79054;SDS011;68452;47.186;-1.528;2023-03-31T00:46:18;45.30;;;6.63;;
79054;SDS011;68452;47.186;-1.528;2023-03-31T00:48:48;55.08;;;7.00;;
79054;SDS011;68452;47.186;-1.528;2023-03-31T00:51:17;52.58;;;7.13;;
79054;SDS011;68452;47.186;-1.528;2023-03-31T00:53:45;52.87;;;7.07;;
79054;SDS011;68452;47.186;-1.528;2023-03-31T00:56:19;53.17;;;6.30;;
79054;SDS011;68452;47.186;-1.528;2023-03-31T00:58:46;62.47;;;8.43;;
79054;SDS011;68452;47.186;-1.528;2023-03-31T01:01:16;57.40;;;7.90;;
79054;SDS011;68452;47.186;-1.528;2023-03-31T01:03:45;58.85;;;8.25;;
79054;SDS011;68452;47.186;-1.528;2023-03-31T01:06:12;62.60;;;7.73;;
79054;SDS011;68452;47.186;-1.528;2023-03-31T01:08:40;63.70;;;8.77;;
79054;SDS011;68452;47.186;-1.528;2023-03-31T01:11:09;65.15;;;7.93;;
79054;SDS011;68452;47.186;-1.528;2023-03-31T01:13:37;52.80;;;8.23;;
79054;SDS011;68452;47.186;-1.528;2023-03-31T01:16:05;60.67;;;7.75;;
79054;SDS011;68452;47.186;-1.528;2023-03-31T01:18:31;65.73;;;9.40;;
79054;SDS011;68452;47.186;-1.528;2023-03-31T01:26:50;65.40;;;8.23;;
79054;SDS011;68452;47.186;-1.528;2023-03-31T01:35:08;51.30;;;7.63;;
79054;SDS011;68452;47.186;-1.528;2023-03-31T01:42:58;66.87;;;8.70;;
79054;SDS011;68452;47.186;-1.528;2023-03-31T01:45:46;67.22;;;8.88;;
79054;SDS011;68452;47.186;-1.528;2023-03-31T01:48:17;63.53;;;7.68;;
79054;SDS011;68452;47.186;-1.528;2023-03-31T01:51:08;56.95;;;8.40;;
79054;SDS011;68452;47.186;-1.528;2023-03-31T01:56:46;57.30;;;9.50;;
79054;SDS011;68452;47.186;-1.528;2023-03-31T01:59:27;63.33;;;8.40;;
79054;SDS011;68452;47.186;-1.528;2023-03-31T02:01:58;59.25;;;9.07;;
79054;SDS011;68452;47.186;-1.528;2023-03-31T02:04:32;70.00;;;8.35;;
79054;SDS011;68452;47.186;-1.528;2023-03-31T02:07:03;62.55;;;9.07;;
79054;SDS011;68452;47.186;-1.528;2023-03-31T02:09:37;62.53;;;8.70;;
79054;SDS011;68452;47.186;-1.528;2023-03-31T02:12:09;78.43;;;10.23;;
79054;SDS011;68452;47.186;-1.528;2023-03-31T02:14:37;64.13;;;10.57;;
79054;SDS011;68452;47.186;-1.528;2023-03-31T02:17:07;61.25;;;8.25;;
79054;SDS011;68452;47.186;-1.528;2023-03-31T02:19:42;70.28;;;8.93;;
79054;SDS011;68452;47.186;-1.528;2023-03-31T02:22:12;61.13;;;8.20;;
79054;SDS011;68452;47.186;-1.528;2023-03-31T02:24:40;60.13;;;8.15;;
79054;SDS011;68452;47.186;-1.528;2023-03-31T02:29:33;65.65;;;9.80;;
79054;SDS011;68452;47.186;-1.528;2023-03-31T02:32:01;55.57;;;8.37;;
79054;SDS011;68452;47.186;-1.528;2023-03-31T02:34:49;61.35;;;8.52;;
79054;SDS011;68452;47.186;-1.528;2023-03-31T02:37:15;54.22;;;8.35;;
79054;SDS011;68452;47.186;-1.528;2023-03-31T02:39:42;60.00;;;8.65;;
79054;SDS011;68452;47.186;-1.528;2023-03-31T02:42:11;61.42;;;7.90;;
79054;SDS011;68452;47.186;-1.528;2023-03-31T02:44:38;60.33;;;8.90;;
79054;SDS011;68452;47.186;-1.528;2023-03-31T02:47:08;64.40;;;8.48;;
79054;SDS011;68452;47.186;-1.528;2023-03-31T02:49:38;55.65;;;8.18;;
79054;SDS011;68452;47.186;-1.528;2023-03-31T02:52:10;67.30;;;9.05;;
79054;SDS011;68452;47.186;-1.528;2023-03-31T02:57:39;69.05;;;10.23;;
79054;SDS011;68452;47.186;-1.528;2023-03-31T03:00:24;63.38;;;8.93;;
79054;SDS011;68452;47.186;-1.528;2023-03-31T03:05:51;71.53;;;9.35;;
79054;SDS011;68452;47.186;-1.528;2023-03-31T03:11:06;73.53;;;9.13;;
79054;SDS011;68452;47.186;-1.528;2023-03-31T03:13:50;85.60;;;10.35;;
79054;SDS011;68452;47.186;-1.528;2023-03-31T03:16:22;77.97;;;9.30;;
79054;SDS011;68452;47.186;-1.528;2023-03-31T03:19:00;75.53;;;9.52;;
79054;SDS011;68452;47.186;-1.528;2023-03-31T03:21:27;64.53;;;8.93;;
79054;SDS011;68452;47.186;-1.528;2023-03-31T03:23:53;65.97;;;8.77;;
79054;SDS011;68452;47.186;-1.528;2023-03-31T03:26:19;67.72;;;7.95;;
79054;SDS011;68452;47.186;-1.528;2023-03-31T03:28:48;58.67;;;8.55;;
79054;SDS011;68452;47.186;-1.528;2023-03-31T03:31:14;66.60;;;8.13;;
79054;SDS011;68452;47.186;-1.528;2023-03-31T03:33:41;58.83;;;8.45;;
79054;SDS011;68452;47.186;-1.528;2023-03-31T03:36:07;67.32;;;8.57;;
79054;SDS011;68452;47.186;-1.528;2023-03-31T03:38:34;65.28;;;7.85;;
79054;SDS011;68452;47.186;-1.528;2023-03-31T03:41:00;74.05;;;9.65;;
79054;SDS011;68452;47.186;-1.528;2023-03-31T03:43:26;51.23;;;7.10;;
79054;SDS011;68452;47.186;-1.528;2023-03-31T03:45:52;55.58;;;7.80;;
79054;SDS011;68452;47.186;-1.528;2023-03-31T03:48:18;51.85;;;7.18;;
79054;SDS011;68452;47.186;-1.528;2023-03-31T03:50:45;49.73;;;7.13;;
79054;SDS011;68452;47.186;-1.528;2023-03-31T03:53:12;55.85;;;8.25;;
79054;SDS011;68452;47.186;-1.528;2023-03-31T03:55:38;66.85;;;8.27;;
79054;SDS011;68452;47.186;-1.528;2023-03-31T03:58:05;56.92;;;7.45;;
79054;SDS011;68452;47.186;-1.528;2023-03-31T04:00:31;62.72;;;7.72;;
79054;SDS011;68452;47.186;-1.528;2023-03-31T04:02:57;61.20;;;7.47;;
79054;SDS011;68452;47.186;-1.528;2023-03-31T04:05:23;56.13;;;7.68;;
79054;SDS011;68452;47.186;-1.528;2023-03-31T04:07:49;50.45;;;7.15;;
79054;SDS011;68452;47.186;-1.528;2023-03-31T04:10:14;52.20;;;7.50;;
79054;SDS011;68452;47.186;-1.528;2023-03-31T04:12:40;63.53;;;8.90;;
79054;SDS011;68452;47.186;-1.528;2023-03-31T04:15:06;59.30;;;7.45;;
79054;SDS011;68452;47.186;-1.528;2023-03-31T04:17:32;57.35;;;7.88;;
79054;SDS011;68452;47.186;-1.528;2023-03-31T04:19:59;59.37;;;7.57;;
79054;SDS011;68452;47.186;-1.528;2023-03-31T04:22:28;56.10;;;8.02;;
79054;SDS011;68452;47.186;-1.528;2023-03-31T04:25:02;64.30;;;7.72;;
79054;SDS011;68452;47.186;-1.528;2023-03-31T04:27:34;61.10;;;7.82;;
79054;SDS011;68452;47.186;-1.528;2023-03-31T04:30:00;60.20;;;9.30;;
79054;SDS011;68452;47.186;-1.528;2023-03-31T04:32:26;59.90;;;8.27;;
79054;SDS011;68452;47.186;-1.528;2023-03-31T04:34:56;51.60;;;6.00;;
79054;SDS011;68452;47.186;-1.528;2023-03-31T04:37:28;67.75;;;6.53;;
79054;SDS011;68452;47.186;-1.528;2023-03-31T04:39:59;65.88;;;7.00;;
79054;SDS011;68452;47.186;-1.528;2023-03-31T04:42:34;62.33;;;6.18;;
79054;SDS011;68452;47.186;-1.528;2023-03-31T04:45:00;81.57;;;9.33;;
79054;SDS011;68452;47.186;-1.528;2023-03-31T04:47:26;73.80;;;8.15;;
79054;SDS011;68452;47.186;-1.528;2023-03-31T04:49:52;54.42;;;6.22;;
79054;SDS011;68452;47.186;-1.528;2023-03-31T04:52:18;44.93;;;5.47;;
79054;SDS011;68452;47.186;-1.528;2023-03-31T04:54:43;37.28;;;5.07;;
79054;SDS011;68452;47.186;-1.528;2023-03-31T04:57:09;46.20;;;4.85;;
79054;SDS011;68452;47.186;-1.528;2023-03-31T04:59:35;45.47;;;5.67;;
79054;SDS011;68452;47.186;-1.528;2023-03-31T05:02:01;48.75;;;5.90;;
79054;SDS011;68452;47.186;-1.528;2023-03-31T05:04:26;49.63;;;4.80;;
79054;SDS011;68452;47.186;-1.528;2023-03-31T05:06:52;50.27;;;5.97;;
79054;SDS011;68452;47.186;-1.528;2023-03-31T05:09:18;47.22;;;5.47;;
79054;SDS011;68452;47.186;-1.528;2023-03-31T05:11:44;50.22;;;6.15;;
79054;SDS011;68452;47.186;-1.528;2023-03-31T05:14:10;54.83;;;6.47;;
79054;SDS011;68452;47.186;-1.528;2023-03-31T05:16:36;55.45;;;7.13;;
79054;SDS011;68452;47.186;-1.528;2023-03-31T05:19:02;55.33;;;7.97;;
79054;SDS011;68452;47.186;-1.528;2023-03-31T05:21:28;70.23;;;8.50;;
79054;SDS011;68452;47.186;-1.528;2023-03-31T05:23:55;72.70;;;8.20;;
79054;SDS011;68452;47.186;-1.528;2023-03-31T05:26:22;56.25;;;7.03;;
79054;SDS011;68452;47.186;-1.528;2023-03-31T05:28:50;59.33;;;7.43;;
79054;SDS011;68452;47.186;-1.528;2023-03-31T05:31:16;67.90;;;8.60;;
79054;SDS011;68452;47.186;-1.528;2023-03-31T05:33:42;54.47;;;6.53;;
79054;SDS011;68452;47.186;-1.528;2023-03-31T05:36:09;61.67;;;7.88;;
79054;SDS011;68452;47.186;-1.528;2023-03-31T05:38:37;61.22;;;7.22;;
79054;SDS011;68452;47.186;-1.528;2023-03-31T05:41:04;67.53;;;7.05;;
79054;SDS011;68452;47.186;-1.528;2023-03-31T05:43:31;49.40;;;7.25;;
79054;SDS011;68452;47.186;-1.528;2023-03-31T05:45:57;56.77;;;6.70;;
79054;SDS011;68452;47.186;-1.528;2023-03-31T05:48:23;46.42;;;7.30;;
79054;SDS011;68452;47.186;-1.528;2023-03-31T05:50:49;55.92;;;7.20;;
79054;SDS011;68452;47.186;-1.528;2023-03-31T05:53:15;37.00;;;4.60;;
79054;SDS011;68452;47.186;-1.528;2023-03-31T05:55:40;42.85;;;4.22;;
79054;SDS011;68452;47.186;-1.528;2023-03-31T05:58:06;46.28;;;6.00;;
79054;SDS011;68452;47.186;-1.528;2023-03-31T06:00:33;42.22;;;5.68;;
79054;SDS011;68452;47.186;-1.528;2023-03-31T06:03:00;47.30;;;6.20;;
79054;SDS011;68452;47.186;-1.528;2023-03-31T06:05:26;51.88;;;6.65;;
79054;SDS011;68452;47.186;-1.528;2023-03-31T06:07:54;52.72;;;6.25;;
79054;SDS011;68452;47.186;-1.528;2023-03-31T06:10:20;44.83;;;5.47;;
79054;SDS011;68452;47.186;-1.528;2023-03-31T06:12:46;35.43;;;4.57;;
79054;SDS011;68452;47.186;-1.528;2023-03-31T06:15:12;30.67;;;4.50;;
79054;SDS011;68452;47.186;-1.528;2023-03-31T06:17:38;36.60;;;4.63;;
79054;SDS011;68452;47.186;-1.528;2023-03-31T06:20:04;35.77;;;3.23;;
79054;SDS011;68452;47.186;-1.528;2023-03-31T06:22:31;23.45;;;3.15;;
79054;SDS011;68452;47.186;-1.528;2023-03-31T06:24:57;20.77;;;2.78;;
79054;SDS011;68452;47.186;-1.528;2023-03-31T06:27:22;25.38;;;2.90;;
79054;SDS011;68452;47.186;-1.528;2023-03-31T06:29:48;25.03;;;2.40;;
79054;SDS011;68452;47.186;-1.528;2023-03-31T06:32:14;27.48;;;3.22;;
79054;SDS011;68452;47.186;-1.528;2023-03-31T06:34:40;24.05;;;3.22;;
79054;SDS011;68452;47.186;-1.528;2023-03-31T06:37:06;27.43;;;3.07;;
79054;SDS011;68452;47.186;-1.528;2023-03-31T06:39:32;29.95;;;3.58;;
79054;SDS011;68452;47.186;-1.528;2023-03-31T06:41:57;35.20;;;3.90;;
79054;SDS011;68452;47.186;-1.528;2023-03-31T06:44:23;28.73;;;3.53;;
79054;SDS011;68452;47.186;-1.528;2023-03-31T06:46:49;29.45;;;3.47;;
79054;SDS011;68452;47.186;-1.528;2023-03-31T06:49:15;30.50;;;3.72;;
79054;SDS011;68452;47.186;-1.528;2023-03-31T06:51:41;33.47;;;3.63;;
79054;SDS011;68452;47.186;-1.528;2023-03-31T06:54:07;38.28;;;4.07;;
79054;SDS011;68452;47.186;-1.528;2023-03-31T06:56:32;43.17;;;4.78;;
79054;SDS011;68452;47.186;-1.528;2023-03-31T06:58:58;39.30;;;4.63;;
79054;SDS011;68452;47.186;-1.528;2023-03-31T07:01:24;40.92;;;4.57;;
79054;SDS011;68452;47.186;-1.528;2023-03-31T07:03:50;38.03;;;4.60;;
79054;SDS011;68452;47.186;-1.528;2023-03-31T07:06:15;41.90;;;7.00;;
79054;SDS011;68452;47.186;-1.528;2023-03-31T07:08:41;45.33;;;5.28;;
79054;SDS011;68452;47.186;-1.528;2023-03-31T07:11:07;54.00;;;6.73;;
79054;SDS011;68452;47.186;-1.528;2023-03-31T07:13:33;49.50;;;6.68;;
79054;SDS011;68452;47.186;-1.528;2023-03-31T07:15:59;51.53;;;5.80;;
79054;SDS011;68452;47.186;-1.528;2023-03-31T07:18:24;51.97;;;6.80;;
79054;SDS011;68452;47.186;-1.528;2023-03-31T07:20:56;49.40;;;6.57;;
79054;SDS011;68452;47.186;-1.528;2023-03-31T07:23:23;47.10;;;6.10;;
79054;SDS011;68452;47.186;-1.528;2023-03-31T07:25:49;39.47;;;5.90;;
79054;SDS011;68452;47.186;-1.528;2023-03-31T07:28:15;46.85;;;6.68;;
79054;SDS011;68452;47.186;-1.528;2023-03-31T07:30:41;50.17;;;6.93;;
79054;SDS011;68452;47.186;-1.528;2023-03-31T07:33:07;66.05;;;6.85;;
79054;SDS011;68452;47.186;-1.528;2023-03-31T07:35:36;42.13;;;6.83;;
79054;SDS011;68452;47.186;-1.528;2023-03-31T07:38:03;49.97;;;6.20;;
79054;SDS011;68452;47.186;-1.528;2023-03-31T07:40:29;55.58;;;7.78;;
79054;SDS011;68452;47.186;-1.528;2023-03-31T07:42:55;51.55;;;7.80;;
79054;SDS011;68452;47.186;-1.528;2023-03-31T07:45:22;41.83;;;7.67;;
79054;SDS011;68452;47.186;-1.528;2023-03-31T07:47:49;43.42;;;5.85;;
79054;SDS011;68452;47.186;-1.528;2023-03-31T07:50:15;50.70;;;7.35;;
79054;SDS011;68452;47.186;-1.528;2023-03-31T07:52:41;39.17;;;4.82;;
79054;SDS011;68452;47.186;-1.528;2023-03-31T07:55:08;30.33;;;4.50;;
79054;SDS011;68452;47.186;-1.528;2023-03-31T07:57:35;38.73;;;4.70;;
79054;SDS011;68452;47.186;-1.528;2023-03-31T08:00:02;42.25;;;5.72;;
79054;SDS011;68452;47.186;-1.528;2023-03-31T08:02:32;43.78;;;6.07;;
79054;SDS011;68452;47.186;-1.528;2023-03-31T08:04:58;48.40;;;7.03;;
79054;SDS011;68452;47.186;-1.528;2023-03-31T08:07:24;39.47;;;5.07;;
79054;SDS011;68452;47.186;-1.528;2023-03-31T08:09:51;38.60;;;4.57;;
79054;SDS011;68452;47.186;-1.528;2023-03-31T08:12:17;42.13;;;5.45;;
79054;SDS011;68452;47.186;-1.528;2023-03-31T08:14:42;38.10;;;4.40;;
79054;SDS011;68452;47.186;-1.528;2023-03-31T08:17:09;36.87;;;5.07;;
79054;SDS011;68452;47.186;-1.528;2023-03-31T08:19:35;38.50;;;4.07;;
79054;SDS011;68452;47.186;-1.528;2023-03-31T08:22:01;33.58;;;3.80;;
79054;SDS011;68452;47.186;-1.528;2023-03-31T08:24:27;31.37;;;4.03;;
79054;SDS011;68452;47.186;-1.528;2023-03-31T08:26:53;28.60;;;3.38;;
79054;SDS011;68452;47.186;-1.528;2023-03-31T08:29:18;27.92;;;3.95;;
79054;SDS011;68452;47.186;-1.528;2023-03-31T08:31:44;42.03;;;5.03;;
79054;SDS011;68452;47.186;-1.528;2023-03-31T08:34:10;31.98;;;4.65;;
79054;SDS011;68452;47.186;-1.528;2023-03-31T08:36:36;34.17;;;5.03;;
79054;SDS011;68452;47.186;-1.528;2023-03-31T08:39:02;38.33;;;3.97;;
79054;SDS011;68452;47.186;-1.528;2023-03-31T08:44:20;42.92;;;5.35;;
79054;SDS011;68452;47.186;-1.528;2023-03-31T08:46:50;35.28;;;4.25;;
79054;SDS011;68452;47.186;-1.528;2023-03-31T08:49:19;35.77;;;5.10;;
79054;SDS011;68452;47.186;-1.528;2023-03-31T08:51:50;43.17;;;5.65;;
79054;SDS011;68452;47.186;-1.528;2023-03-31T08:54:25;44.40;;;5.55;;
79054;SDS011;68452;47.186;-1.528;2023-03-31T08:56:57;41.45;;;5.22;;
79054;SDS011;68452;47.186;-1.528;2023-03-31T08:59:33;48.65;;;6.57;;
79054;SDS011;68452;47.186;-1.528;2023-03-31T09:15:10;37.63;;;4.83;;
79054;SDS011;68452;47.186;-1.528;2023-03-31T09:17:50;36.40;;;4.95;;
79054;SDS011;68452;47.186;-1.528;2023-03-31T09:20:21;44.80;;;5.85;;
79054;SDS011;68452;47.186;-1.528;2023-03-31T09:23:23;43.35;;;5.40;;
79054;SDS011;68452;47.186;-1.528;2023-03-31T09:25:54;37.55;;;4.43;;
79054;SDS011;68452;47.186;-1.528;2023-03-31T09:28:25;38.77;;;6.63;;
79054;SDS011;68452;47.186;-1.528;2023-03-31T09:30:57;39.50;;;5.05;;
79054;SDS011;68452;47.186;-1.528;2023-03-31T09:33:29;42.42;;;5.57;;
79054;SDS011;68452;47.186;-1.528;2023-03-31T09:36:01;37.20;;;5.15;;
79054;SDS011;68452;47.186;-1.528;2023-03-31T09:38:32;32.83;;;4.20;;
79054;SDS011;68452;47.186;-1.528;2023-03-31T09:40:59;32.80;;;3.97;;
79054;SDS011;68452;47.186;-1.528;2023-03-31T09:43:28;35.28;;;4.32;;
79054;SDS011;68452;47.186;-1.528;2023-03-31T09:45:55;32.22;;;3.90;;
79054;SDS011;68452;47.186;-1.528;2023-03-31T09:48:22;19.50;;;2.00;;
79054;SDS011;68452;47.186;-1.528;2023-03-31T09:50:52;21.08;;;2.15;;
79054;SDS011;68452;47.186;-1.528;2023-03-31T09:56:10;15.68;;;1.73;;
79054;SDS011;68452;47.186;-1.528;2023-03-31T09:58:45;16.33;;;1.75;;
79054;SDS011;68452;47.186;-1.528;2023-03-31T10:01:11;19.17;;;2.33;;
79054;SDS011;68452;47.186;-1.528;2023-03-31T10:03:57;18.75;;;2.55;;
79054;SDS011;68452;47.186;-1.528;2023-03-31T10:06:23;18.17;;;3.20;;
79054;SDS011;68452;47.186;-1.528;2023-03-31T10:11:22;31.27;;;3.67;;
79054;SDS011;68452;47.186;-1.528;2023-03-31T10:13:50;32.13;;;4.40;;
79054;SDS011;68452;47.186;-1.528;2023-03-31T10:18:54;38.93;;;3.63;;
79054;SDS011;68452;47.186;-1.528;2023-03-31T10:21:35;32.67;;;4.22;;
79054;SDS011;68452;47.186;-1.528;2023-03-31T10:24:02;33.00;;;4.28;;
79054;SDS011;68452;47.186;-1.528;2023-03-31T10:26:33;36.60;;;4.15;;
79054;SDS011;68452;47.186;-1.528;2023-03-31T10:28:59;37.13;;;4.67;;
79054;SDS011;68452;47.186;-1.528;2023-03-31T10:31:25;37.43;;;4.90;;
79054;SDS011;68452;47.186;-1.528;2023-03-31T10:33:58;33.42;;;3.97;;
79054;SDS011;68452;47.186;-1.528;2023-03-31T10:36:30;35.35;;;4.20;;
79054;SDS011;68452;47.186;-1.528;2023-03-31T10:38:57;39.70;;;5.18;;
79054;SDS011;68452;47.186;-1.528;2023-03-31T10:41:24;34.92;;;5.00;;
79054;SDS011;68452;47.186;-1.528;2023-03-31T10:43:58;39.27;;;5.37;;
79054;SDS011;68452;47.186;-1.528;2023-03-31T10:49:15;33.55;;;4.05;;
79054;SDS011;68452;47.186;-1.528;2023-03-31T10:51:47;40.65;;;4.93;;
79054;SDS011;68452;47.186;-1.528;2023-03-31T10:54:17;31.08;;;3.58;;
79054;SDS011;68452;47.186;-1.528;2023-03-31T10:56:45;36.57;;;4.57;;
79054;SDS011;68452;47.186;-1.528;2023-03-31T10:59:16;27.15;;;3.92;;
79054;SDS011;68452;47.186;-1.528;2023-03-31T11:07:44;40.95;;;4.72;;
79054;SDS011;68452;47.186;-1.528;2023-03-31T11:13:32;34.50;;;4.18;;
79054;SDS011;68452;47.186;-1.528;2023-03-31T11:18:56;43.45;;;4.93;;
79054;SDS011;68452;47.186;-1.528;2023-03-31T11:27:23;40.03;;;4.50;;
79054;SDS011;68452;47.186;-1.528;2023-03-31T11:39:15;36.30;;;4.67;;
79054;SDS011;68452;47.186;-1.528;2023-03-31T11:41:49;32.15;;;3.78;;
79054;SDS011;68452;47.186;-1.528;2023-03-31T11:44:19;33.38;;;4.57;;
79054;SDS011;68452;47.186;-1.528;2023-03-31T11:46:59;36.65;;;5.13;;
79054;SDS011;68452;47.186;-1.528;2023-03-31T11:49:38;28.58;;;3.30;;
79054;SDS011;68452;47.186;-1.528;2023-03-31T11:52:28;26.20;;;3.53;;
79054;SDS011;68452;47.186;-1.528;2023-03-31T11:55:17;28.55;;;4.05;;
79054;SDS011;68452;47.186;-1.528;2023-03-31T12:06:11;40.90;;;5.27;;
79054;SDS011;68452;47.186;-1.528;2023-03-31T12:08:49;39.28;;;4.72;;
79054;SDS011;68452;47.186;-1.528;2023-03-31T12:11:23;40.53;;;6.22;;
79054;SDS011;68452;47.186;-1.528;2023-03-31T12:16:54;36.45;;;4.80;;
79054;SDS011;68452;47.186;-1.528;2023-03-31T12:19:26;31.13;;;4.20;;
79054;SDS011;68452;47.186;-1.528;2023-03-31T12:22:01;33.00;;;3.95;;
79054;SDS011;68452;47.186;-1.528;2023-03-31T12:24:29;32.08;;;3.90;;
79054;SDS011;68452;47.186;-1.528;2023-03-31T12:29:38;26.60;;;3.60;;
79054;SDS011;68452;47.186;-1.528;2023-03-31T12:32:28;40.67;;;4.77;;
79054;SDS011;68452;47.186;-1.528;2023-03-31T12:43:15;35.63;;;3.45;;
79054;SDS011;68452;47.186;-1.528;2023-03-31T12:51:19;28.60;;;3.95;;
79054;SDS011;68452;47.186;-1.528;2023-03-31T13:04:40;25.75;;;3.95;;
79054;SDS011;68452;47.186;-1.528;2023-03-31T13:09:56;33.08;;;4.90;;
79054;SDS011;68452;47.186;-1.528;2023-03-31T13:12:24;31.20;;;4.60;;
79054;SDS011;68452;47.186;-1.528;2023-03-31T13:14:53;37.85;;;4.80;;
79054;SDS011;68452;47.186;-1.528;2023-03-31T13:17:34;34.03;;;4.05;;
79054;SDS011;68452;47.186;-1.528;2023-03-31T13:23:02;31.90;;;3.15;;
79054;SDS011;68452;47.186;-1.528;2023-03-31T13:35:40;33.65;;;3.95;;
79054;SDS011;68452;47.186;-1.528;2023-03-31T14:08:07;29.42;;;2.60;;
79054;SDS011;68452;47.186;-1.528;2023-03-31T14:10:37;34.85;;;4.18;;
79054;SDS011;68452;47.186;-1.528;2023-03-31T14:15:45;21.70;;;2.63;;
79054;SDS011;68452;47.186;-1.528;2023-03-31T14:18:24;22.90;;;2.77;;
79054;SDS011;68452;47.186;-1.528;2023-03-31T14:21:00;29.95;;;3.40;;
79054;SDS011;68452;47.186;-1.528;2023-03-31T14:24:17;33.55;;;4.47;;
79054;SDS011;68452;47.186;-1.528;2023-03-31T14:30:01;33.92;;;4.43;;
79054;SDS011;68452;47.186;-1.528;2023-03-31T14:32:44;28.30;;;3.80;;
79054;SDS011;68452;47.186;-1.528;2023-03-31T14:37:43;27.88;;;3.97;;
79054;SDS011;68452;47.186;-1.528;2023-03-31T14:40:13;35.40;;;4.05;;
79054;SDS011;68452;47.186;-1.528;2023-03-31T14:42:41;22.45;;;3.17;;
79054;SDS011;68452;47.186;-1.528;2023-03-31T14:45:18;25.60;;;3.73;;
79054;SDS011;68452;47.186;-1.528;2023-03-31T14:50:45;34.38;;;3.67;;
79054;SDS011;68452;47.186;-1.528;2023-03-31T14:53:14;33.92;;;4.75;;
79054;SDS011;68452;47.186;-1.528;2023-03-31T14:55:42;25.88;;;3.65;;
79054;SDS011;68452;47.186;-1.528;2023-03-31T14:58:11;33.13;;;4.37;;
79054;SDS011;68452;47.186;-1.528;2023-03-31T15:00:41;31.98;;;4.63;;
79054;SDS011;68452;47.186;-1.528;2023-03-31T15:03:11;36.00;;;4.28;;
79054;SDS011;68452;47.186;-1.528;2023-03-31T15:05:40;34.95;;;3.92;;
79054;SDS011;68452;47.186;-1.528;2023-03-31T15:08:10;29.13;;;4.10;;
79054;SDS011;68452;47.186;-1.528;2023-03-31T15:10:42;30.27;;;3.50;;
79054;SDS011;68452;47.186;-1.528;2023-03-31T15:13:17;29.52;;;3.28;;
79054;SDS011;68452;47.186;-1.528;2023-03-31T15:15:45;25.33;;;4.03;;
79054;SDS011;68452;47.186;-1.528;2023-03-31T15:18:11;29.70;;;3.90;;
79054;SDS011;68452;47.186;-1.528;2023-03-31T15:20:39;25.90;;;2.87;;
79054;SDS011;68452;47.186;-1.528;2023-03-31T15:23:19;38.28;;;4.18;;
79054;SDS011;68452;47.186;-1.528;2023-03-31T15:25:49;30.50;;;3.85;;
79054;SDS011;68452;47.186;-1.528;2023-03-31T15:28:39;25.20;;;3.22;;
79054;SDS011;68452;47.186;-1.528;2023-03-31T15:31:14;21.98;;;2.83;;
79054;SDS011;68452;47.186;-1.528;2023-03-31T15:33:41;18.47;;;2.33;;
79054;SDS011;68452;47.186;-1.528;2023-03-31T15:36:07;20.00;;;2.72;;
79054;SDS011;68452;47.186;-1.528;2023-03-31T15:38:36;21.20;;;2.55;;
79054;SDS011;68452;47.186;-1.528;2023-03-31T15:41:02;24.67;;;2.40;;
79054;SDS011;68452;47.186;-1.528;2023-03-31T15:46:55;21.67;;;2.00;;
79054;SDS011;68452;47.186;-1.528;2023-03-31T15:49:03;26.35;;;3.53;;
79054;SDS011;68452;47.186;-1.528;2023-03-31T15:51:42;23.60;;;3.22;;
79054;SDS011;68452;47.186;-1.528;2023-03-31T15:56:59;27.13;;;3.58;;
79054;SDS011;68452;47.186;-1.528;2023-03-31T15:59:27;31.80;;;4.03;;
79054;SDS011;68452;47.186;-1.528;2023-03-31T16:01:54;26.45;;;3.33;;
79054;SDS011;68452;47.186;-1.528;2023-03-31T16:04:24;24.10;;;3.15;;
79054;SDS011;68452;47.186;-1.528;2023-03-31T16:07:16;25.85;;;3.58;;
79054;SDS011;68452;47.186;-1.528;2023-03-31T16:09:52;26.30;;;2.67;;
79054;SDS011;68452;47.186;-1.528;2023-03-31T16:15:11;26.30;;;3.50;;
79054;SDS011;68452;47.186;-1.528;2023-03-31T16:20:28;28.30;;;3.45;;
79054;SDS011;68452;47.186;-1.528;2023-03-31T16:23:01;32.92;;;3.38;;
79054;SDS011;68452;47.186;-1.528;2023-03-31T16:25:38;25.03;;;2.73;;
79054;SDS011;68452;47.186;-1.528;2023-03-31T16:28:04;28.33;;;3.53;;
79054;SDS011;68452;47.186;-1.528;2023-03-31T16:30:38;25.70;;;3.42;;
79054;SDS011;68452;47.186;-1.528;2023-03-31T16:33:16;24.60;;;3.08;;
79054;SDS011;68452;47.186;-1.528;2023-03-31T16:35:44;27.27;;;2.97;;
79054;SDS011;68452;47.186;-1.528;2023-03-31T16:38:15;32.03;;;4.03;;
79054;SDS011;68452;47.186;-1.528;2023-03-31T16:40:43;31.23;;;4.03;;
79054;SDS011;68452;47.186;-1.528;2023-03-31T16:43:14;31.17;;;4.15;;
79054;SDS011;68452;47.186;-1.528;2023-03-31T16:45:56;28.02;;;3.88;;
79054;SDS011;68452;47.186;-1.528;2023-03-31T16:48:27;32.05;;;3.72;;
79054;SDS011;68452;47.186;-1.528;2023-03-31T16:50:56;30.63;;;3.07;;
79054;SDS011;68452;47.186;-1.528;2023-03-31T16:53:29;27.20;;;4.50;;
79054;SDS011;68452;47.186;-1.528;2023-03-31T16:56:24;23.10;;;2.30;;
79054;SDS011;68452;47.186;-1.528;2023-03-31T16:59:36;25.73;;;3.53;;
79054;SDS011;68452;47.186;-1.528;2023-03-31T17:02:21;27.15;;;3.50;;
79054;SDS011;68452;47.186;-1.528;2023-03-31T17:04:48;32.60;;;3.80;;
79054;SDS011;68452;47.186;-1.528;2023-03-31T17:07:14;28.85;;;3.00;;
79054;SDS011;68452;47.186;-1.528;2023-03-31T17:09:41;31.88;;;4.03;;
79054;SDS011;68452;47.186;-1.528;2023-03-31T17:12:06;34.97;;;4.35;;
79054;SDS011;68452;47.186;-1.528;2023-03-31T17:14:32;39.97;;;3.97;;
79054;SDS011;68452;47.186;-1.528;2023-03-31T17:16:58;35.00;;;4.38;;
79054;SDS011;68452;47.186;-1.528;2023-03-31T17:19:25;33.65;;;4.15;;
79054;SDS011;68452;47.186;-1.528;2023-03-31T17:21:51;31.88;;;4.10;;
79054;SDS011;68452;47.186;-1.528;2023-03-31T17:24:19;30.90;;;4.03;;
79054;SDS011;68452;47.186;-1.528;2023-03-31T17:26:46;33.37;;;4.50;;
79054;SDS011;68452;47.186;-1.528;2023-03-31T17:29:12;28.80;;;4.00;;
79054;SDS011;68452;47.186;-1.528;2023-03-31T17:31:38;26.48;;;3.30;;
79054;SDS011;68452;47.186;-1.528;2023-03-31T17:34:07;34.60;;;4.07;;
79054;SDS011;68452;47.186;-1.528;2023-03-31T17:36:34;33.78;;;5.10;;
79054;SDS011;68452;47.186;-1.528;2023-03-31T17:39:01;34.77;;;4.90;;
79054;SDS011;68452;47.186;-1.528;2023-03-31T17:41:29;27.02;;;3.90;;
79054;SDS011;68452;47.186;-1.528;2023-03-31T17:43:55;25.92;;;3.40;;
79054;SDS011;68452;47.186;-1.528;2023-03-31T17:46:21;32.78;;;3.65;;
79054;SDS011;68452;47.186;-1.528;2023-03-31T17:48:48;24.20;;;3.43;;